createdAt,value
2022-10-08T00:01:15.379Z,2.60
2022-10-08T00:03:47.374Z,2.60
2022-10-08T00:06:17.163Z,4.97
2022-10-08T00:08:49.386Z,11.13
2022-10-08T00:11:30.059Z,6.88
2022-10-08T00:13:57.450Z,3.08
2022-10-08T00:16:35.496Z,3.63
2022-10-08T00:19:06.200Z,2.10
2022-10-08T00:21:36.226Z,4.50
2022-10-08T00:24:05.389Z,2.70
2022-10-08T00:26:38.686Z,8.13
2022-10-08T00:29:11.876Z,2.92
2022-10-08T00:31:41.541Z,2.00
2022-10-08T00:34:11.198Z,1.95
2022-10-08T00:36:39.243Z,8.10
2022-10-08T00:39:07.041Z,8.35
2022-10-08T00:41:40.016Z,4.70
2022-10-08T00:44:43.960Z,4.72
2022-10-08T00:47:22.844Z,4.45
2022-10-08T00:49:53.301Z,7.45
2022-10-08T00:52:19.982Z,6.55
2022-10-08T00:54:46.883Z,7.53
2022-10-08T00:57:13.524Z,4.60
2022-10-08T00:59:40.143Z,4.65
2022-10-08T01:02:08.905Z,6.35
2022-10-08T01:04:38.823Z,7.25
2022-10-08T01:07:50.835Z,6.38
2022-10-08T01:10:23.076Z,3.63
2022-10-08T01:13:17.728Z,5.47
2022-10-08T01:16:04.199Z,7.53
2022-10-08T01:18:48.630Z,4.72
2022-10-08T01:21:35.655Z,10.80
2022-10-08T01:24:20.496Z,13.13
2022-10-08T01:27:02.944Z,8.15
2022-10-08T01:29:39.527Z,7.65
2022-10-08T01:32:17.436Z,7.40
2022-10-08T01:34:53.188Z,7.28
2022-10-08T01:37:39.721Z,6.15
2022-10-08T01:40:16.586Z,9.00
2022-10-08T01:42:45.295Z,8.15
2022-10-08T01:45:18.579Z,11.10
2022-10-08T01:47:47.567Z,6.15
2022-10-08T01:50:28.698Z,8.82
2022-10-08T01:52:59.596Z,7.53
2022-10-08T01:55:35.898Z,9.73
2022-10-08T01:58:42.975Z,7.63
2022-10-08T02:01:16.039Z,11.85
2022-10-08T02:04:02.668Z,6.15
2022-10-08T02:06:33.613Z,7.93
2022-10-08T02:09:00.263Z,13.70
2022-10-08T02:11:26.808Z,7.93
2022-10-08T02:13:55.795Z,6.75
2022-10-08T02:16:31.136Z,7.80
2022-10-08T02:19:12.784Z,7.78
2022-10-08T02:21:41.078Z,8.13
2022-10-08T02:24:10.468Z,8.70
2022-10-08T02:26:48.855Z,10.02
2022-10-08T02:29:20.512Z,8.70
2022-10-08T02:31:54.836Z,8.52
2022-10-08T02:34:30.256Z,13.20
2022-10-08T02:37:13.283Z,5.47
2022-10-08T02:39:46.325Z,10.38
2022-10-08T02:42:17.993Z,5.95
2022-10-08T02:44:59.595Z,6.88
2022-10-08T02:47:33.201Z,12.63
2022-10-08T02:50:05.231Z,11.05
2022-10-08T02:52:37.162Z,8.40
2022-10-08T02:55:10.975Z,5.30
2022-10-08T02:57:51.104Z,3.85
2022-10-08T03:00:17.959Z,7.18
2022-10-08T03:02:56.137Z,8.48
2022-10-08T03:05:23.234Z,7.18
2022-10-08T03:07:53.991Z,13.45
2022-10-08T03:10:24.568Z,5.55
2022-10-08T03:12:53.336Z,9.82
2022-10-08T03:15:20.031Z,7.32
2022-10-08T03:17:50.673Z,11.75
2022-10-08T03:20:17.444Z,10.40
2022-10-08T03:22:44.103Z,8.27
2022-10-08T03:25:10.892Z,8.98
2022-10-08T03:27:37.662Z,9.35
2022-10-08T03:30:05.001Z,6.15
2022-10-08T03:32:31.586Z,12.57
2022-10-08T03:34:58.189Z,5.82
2022-10-08T03:37:24.772Z,4.55
2022-10-08T03:39:53.627Z,10.10
2022-10-08T03:42:20.232Z,15.73
2022-10-08T03:44:48.693Z,5.18
2022-10-08T03:47:15.336Z,5.30
2022-10-08T03:49:42.001Z,7.68
2022-10-08T03:52:08.695Z,6.55
2022-10-08T03:54:36.126Z,5.93
2022-10-08T03:57:03.732Z,4.40
2022-10-08T03:59:30.363Z,9.50
2022-10-08T04:01:56.969Z,8.02
2022-10-08T04:04:25.763Z,14.10
2022-10-08T04:06:53.321Z,9.02
2022-10-08T04:09:19.867Z,9.57
2022-10-08T04:11:48.324Z,9.20
2022-10-08T04:14:17.267Z,5.47
2022-10-08T04:16:43.841Z,8.27
2022-10-08T04:19:14.302Z,5.65
2022-10-08T04:21:40.920Z,4.22
2022-10-08T04:24:09.213Z,8.60
2022-10-08T04:26:35.879Z,10.18
2022-10-08T04:29:02.426Z,8.35
2022-10-08T04:31:29.205Z,9.98
2022-10-08T04:33:56.495Z,7.03
2022-10-08T04:36:27.578Z,5.88
2022-10-08T04:38:54.268Z,10.90
2022-10-08T04:41:28.400Z,4.88
2022-10-08T04:44:02.439Z,7.95
2022-10-08T04:46:30.294Z,7.55
2022-10-08T04:48:59.607Z,9.35
2022-10-08T04:51:27.256Z,12.18
2022-10-08T04:53:57.231Z,7.63
2022-10-08T04:56:26.353Z,10.05
2022-10-08T04:58:55.264Z,4.68
2022-10-08T05:01:23.997Z,5.13
2022-10-08T05:03:53.616Z,8.75
2022-10-08T05:06:22.997Z,6.28
2022-10-08T05:08:50.507Z,7.60
2022-10-08T05:11:19.976Z,7.97
2022-10-08T05:13:51.423Z,8.95
2022-10-08T05:16:18.874Z,4.20
2022-10-08T05:18:46.573Z,8.93
2022-10-08T05:21:16.072Z,9.27
2022-10-08T05:23:43.324Z,6.63
2022-10-08T05:26:35.599Z,4.10
2022-10-08T05:29:10.334Z,6.00
2022-10-08T05:31:38.101Z,6.45
2022-10-08T05:34:05.107Z,8.05
2022-10-08T05:36:33.697Z,7.07
2022-10-08T05:39:02.234Z,15.20
2022-10-08T05:41:31.201Z,8.27
2022-10-08T05:43:58.848Z,9.40
2022-10-08T05:46:29.275Z,7.97
2022-10-08T05:48:59.904Z,6.03
2022-10-08T05:51:27.192Z,14.90
2022-10-08T05:53:55.274Z,4.32
2022-10-08T05:56:23.831Z,5.03
2022-10-08T05:58:51.428Z,3.42
2022-10-08T06:01:28.213Z,9.55
2022-10-08T06:03:57.983Z,5.60
2022-10-08T06:06:25.649Z,8.30
2022-10-08T06:09:00.848Z,6.78
2022-10-08T06:11:31.459Z,6.53
2022-10-08T06:14:02.886Z,12.15
2022-10-08T06:16:32.237Z,7.53
2022-10-08T06:19:01.094Z,7.53
2022-10-08T06:21:29.376Z,10.38
2022-10-08T06:23:58.187Z,5.65
2022-10-08T06:26:31.603Z,6.32
2022-10-08T06:29:01.168Z,4.85
2022-10-08T06:31:28.078Z,12.70
2022-10-08T06:33:58.852Z,5.85
2022-10-08T06:36:27.179Z,12.50
2022-10-08T06:38:56.419Z,6.22
2022-10-08T06:41:25.152Z,7.57
2022-10-08T06:43:52.118Z,7.13
2022-10-08T06:46:19.937Z,4.93
2022-10-08T06:48:47.085Z,7.60
2022-10-08T06:51:16.565Z,4.80
2022-10-08T06:53:44.153Z,9.70
2022-10-08T06:56:14.834Z,7.60
2022-10-08T06:58:42.372Z,10.40
2022-10-08T07:01:33.203Z,9.02
2022-10-08T07:04:03.975Z,3.22
2022-10-08T07:06:30.720Z,4.38
2022-10-08T07:09:00.146Z,5.47
2022-10-08T07:11:27.687Z,4.25
2022-10-08T07:13:56.717Z,3.92
2022-10-08T07:16:25.207Z,3.42
2022-10-08T07:18:54.720Z,4.22
2022-10-08T07:21:22.541Z,2.92
2022-10-08T07:23:50.225Z,4.75
2022-10-08T07:26:19.966Z,1.42
2022-10-08T07:28:52.185Z,5.75
2022-10-08T07:31:24.223Z,3.13
2022-10-08T07:33:51.270Z,2.15
2022-10-08T07:36:22.752Z,6.70
2022-10-08T07:38:57.968Z,3.60
2022-10-08T07:41:25.381Z,4.70
2022-10-08T07:43:53.800Z,4.28
2022-10-08T07:46:23.611Z,4.50
2022-10-08T07:48:51.088Z,3.72
2022-10-08T07:51:19.762Z,5.90
2022-10-08T07:53:46.908Z,1.65
2022-10-08T07:56:15.517Z,4.40
2022-10-08T07:58:42.377Z,6.47
2022-10-08T08:01:16.168Z,5.50
2022-10-08T08:03:44.115Z,1.83
2022-10-08T08:06:16.359Z,8.00
2022-10-08T08:08:45.119Z,4.05
2022-10-08T08:11:14.137Z,5.47
2022-10-08T08:13:44.591Z,3.45
2022-10-08T08:16:18.077Z,5.25
2022-10-08T08:18:48.259Z,3.55
2022-10-08T08:21:19.560Z,3.80
2022-10-08T08:23:48.500Z,5.38
2022-10-08T08:26:22.564Z,1.80
2022-10-08T08:28:53.658Z,2.83
2022-10-08T08:31:25.510Z,3.65
2022-10-08T08:33:57.564Z,1.58
2022-10-08T08:36:27.856Z,6.88
2022-10-08T08:38:56.464Z,1.30
2022-10-08T08:41:43.717Z,3.22
2022-10-08T08:44:23.580Z,2.30
2022-10-08T08:47:04.260Z,4.63
2022-10-08T08:49:42.204Z,5.78
2022-10-08T08:52:12.050Z,6.93
2022-10-08T08:54:38.648Z,6.82
2022-10-08T08:57:23.769Z,2.83
2022-10-08T08:59:55.199Z,4.63
2022-10-08T09:02:31.747Z,2.45
2022-10-08T09:05:03.533Z,5.80
2022-10-08T09:07:40.979Z,2.42
2022-10-08T09:10:13.612Z,6.22
2022-10-08T09:12:45.933Z,2.70
2022-10-08T09:15:26.856Z,2.75
2022-10-08T09:17:55.305Z,1.42
2022-10-08T09:20:24.663Z,1.85
2022-10-08T09:22:52.797Z,3.50
2022-10-08T09:25:25.476Z,3.03
2022-10-08T09:27:58.139Z,3.15
2022-10-08T09:30:24.878Z,6.55
2022-10-08T09:32:54.676Z,2.00
2022-10-08T09:35:22.322Z,1.35
2022-10-08T09:37:49.892Z,1.23
2022-10-08T09:40:23.304Z,4.43
2022-10-08T09:43:08.996Z,2.03
2022-10-08T09:45:41.724Z,4.10
2022-10-08T09:48:28.622Z,0.77
2022-10-08T09:51:15.864Z,3.30
2022-10-08T09:53:47.192Z,0.35
2022-10-08T09:56:15.201Z,6.13
2022-10-08T09:58:58.576Z,1.08
2022-10-08T10:01:25.741Z,6.32
2022-10-08T10:04:02.131Z,0.38
2022-10-08T10:06:35.421Z,1.60
2022-10-08T10:09:35.165Z,7.20
2022-10-08T10:12:06.957Z,2.35
2022-10-08T10:14:46.477Z,2.35
2022-10-08T10:17:53.886Z,1.95
2022-10-08T10:20:32.315Z,1.85
2022-10-08T10:23:13.516Z,1.13
2022-10-08T10:26:08.806Z,0.85
2022-10-08T10:31:37.109Z,6.45
2022-10-08T10:34:24.459Z,0.45
2022-10-08T10:37:00.752Z,2.55
2022-10-08T10:39:43.057Z,0.40
2022-10-08T10:42:19.423Z,0.88
2022-10-08T10:44:58.988Z,1.08
2022-10-08T10:47:32.175Z,0.43
2022-10-08T10:50:03.137Z,0.25
2022-10-08T10:52:34.622Z,2.67
2022-10-08T10:55:34.916Z,0.43
2022-10-08T10:58:19.965Z,0.55
2022-10-08T11:01:17.612Z,7.78
2022-10-08T11:03:54.549Z,0.25
2022-10-08T11:06:49.743Z,0.43
2022-10-08T11:09:35.208Z,2.30
2022-10-08T11:12:25.620Z,0.40
2022-10-08T11:15:04.813Z,0.55
2022-10-08T11:17:51.755Z,1.77
2022-10-08T11:20:29.350Z,3.10
2022-10-08T11:23:27.853Z,1.65
2022-10-08T11:26:22.703Z,1.83
2022-10-08T11:29:17.779Z,0.82
2022-10-08T11:31:50.843Z,2.10
2022-10-08T11:34:36.985Z,0.82
2022-10-08T11:37:15.379Z,1.85
2022-10-08T11:40:06.569Z,0.63
2022-10-08T11:42:49.021Z,1.02
2022-10-08T11:45:24.437Z,2.15
2022-10-08T11:47:56.529Z,1.10
2022-10-08T11:50:29.204Z,2.05
2022-10-08T11:53:01.218Z,2.40
2022-10-08T11:55:33.548Z,0.38
2022-10-08T11:58:40.907Z,0.55
2022-10-08T12:01:10.100Z,0.32
2022-10-08T12:03:46.214Z,2.65
2022-10-08T12:06:26.775Z,0.90
2022-10-08T12:08:56.315Z,0.40
2022-10-08T12:11:32.077Z,0.75
2022-10-08T12:14:14.609Z,0.40
2022-10-08T12:16:59.026Z,2.20
2022-10-08T12:19:35.102Z,0.50
2022-10-08T12:22:14.897Z,1.17
2022-10-08T12:24:43.838Z,0.40
2022-10-08T12:27:16.958Z,0.57
2022-10-08T12:30:11.072Z,0.30
2022-10-08T12:32:43.649Z,2.10
2022-10-08T12:35:34.072Z,0.52
2022-10-08T12:38:15.659Z,0.73
2022-10-08T12:41:19.753Z,1.75
2022-10-08T12:43:57.299Z,4.20
2022-10-08T12:46:50.524Z,1.48
2022-10-08T12:49:32.063Z,2.00
2022-10-08T12:52:33.140Z,4.10
2022-10-08T12:55:02.008Z,1.73
2022-10-08T12:57:40.380Z,1.33
2022-10-08T13:00:30.423Z,0.73
2022-10-08T13:03:14.909Z,2.28
2022-10-08T13:05:47.755Z,0.30
2022-10-08T13:08:34.791Z,1.70
2022-10-08T13:11:06.919Z,0.20
2022-10-08T13:13:41.148Z,0.50
2022-10-08T13:16:14.856Z,0.93
2022-10-08T13:18:44.731Z,1.65
2022-10-08T13:21:32.606Z,2.28
2022-10-08T13:24:00.248Z,0.45
2022-10-08T13:26:42.129Z,2.03
2022-10-08T13:29:24.096Z,1.05
2022-10-08T13:32:12.509Z,5.82
2022-10-08T13:34:39.303Z,0.63
2022-10-08T13:37:11.112Z,2.50
2022-10-08T13:39:41.199Z,1.73
2022-10-08T13:42:14.528Z,1.65
2022-10-08T13:44:42.157Z,0.35
2022-10-08T13:47:19.241Z,1.17
2022-10-08T13:49:46.457Z,2.30
2022-10-08T13:52:20.088Z,0.88
2022-10-08T13:54:48.137Z,1.20
2022-10-08T13:57:15.827Z,2.45
2022-10-08T13:59:42.563Z,0.82
2022-10-08T14:02:13.654Z,1.27
2022-10-08T14:04:43.007Z,2.65
2022-10-08T14:07:22.867Z,1.08
2022-10-08T14:09:50.192Z,0.60
2022-10-08T14:12:21.228Z,0.50
2022-10-08T14:14:47.865Z,1.65
2022-10-08T14:17:14.475Z,2.10
2022-10-08T14:19:43.318Z,0.88
2022-10-08T14:22:12.091Z,4.53
2022-10-08T14:24:39.277Z,1.95
2022-10-08T14:27:08.388Z,4.10
2022-10-08T14:29:35.484Z,5.43
2022-10-08T14:32:03.905Z,2.90
2022-10-08T14:34:30.451Z,2.85
2022-10-08T14:36:57.989Z,3.17
2022-10-08T14:39:27.833Z,1.70
2022-10-08T14:41:56.733Z,2.47
2022-10-08T14:44:23.292Z,1.70
2022-10-08T14:46:54.754Z,2.05
2022-10-08T14:49:22.187Z,2.08
2022-10-08T14:51:48.896Z,1.63
2022-10-08T14:54:15.908Z,1.92
2022-10-08T14:56:43.007Z,2.63
2022-10-08T14:59:10.880Z,2.22
2022-10-08T15:01:37.819Z,1.00
2022-10-08T15:04:05.562Z,0.75
2022-10-08T15:06:34.119Z,1.02
2022-10-08T15:09:00.703Z,0.65
2022-10-08T15:11:27.314Z,2.05
2022-10-08T15:13:55.882Z,0.65
2022-10-08T15:16:22.716Z,1.45
2022-10-08T15:18:49.396Z,0.90
2022-10-08T15:21:15.981Z,1.67
2022-10-08T15:23:42.549Z,0.82
2022-10-08T15:26:14.808Z,0.20
2022-10-08T15:28:42.975Z,2.17
2022-10-08T15:31:21.930Z,2.17
2022-10-08T15:33:50.663Z,1.13
2022-10-08T15:36:25.514Z,3.40
2022-10-08T15:39:16.621Z,0.38
2022-10-08T15:41:45.301Z,2.90
2022-10-08T15:44:26.883Z,0.93
2022-10-08T15:47:07.609Z,2.78
2022-10-08T15:49:42.911Z,0.45
2022-10-08T15:52:18.271Z,2.15
2022-10-08T15:54:45.272Z,0.60
2022-10-08T15:57:13.809Z,2.75
2022-10-08T15:59:41.097Z,0.30
2022-10-08T16:02:10.733Z,0.40
2022-10-08T16:04:43.308Z,3.47
2022-10-08T16:07:10.792Z,1.48
2022-10-08T16:09:37.358Z,0.22
2022-10-08T16:12:06.141Z,0.38
2022-10-08T16:14:32.757Z,0.20
2022-10-08T16:16:59.383Z,2.72
2022-10-08T16:19:27.233Z,1.42
2022-10-08T16:21:56.005Z,2.10
2022-10-08T16:24:25.203Z,1.98
2022-10-08T16:26:52.323Z,19.88
2022-10-08T16:29:19.737Z,4.82
2022-10-08T16:31:47.360Z,4.25
2022-10-08T16:34:20.685Z,6.25
2022-10-08T16:36:53.788Z,5.47
2022-10-08T16:39:23.835Z,4.13
2022-10-08T16:41:50.960Z,2.80
2022-10-08T16:44:20.591Z,2.33
2022-10-08T16:46:50.543Z,5.05
2022-10-08T16:49:24.653Z,1.35
2022-10-08T16:51:53.456Z,0.52
2022-10-08T16:54:22.288Z,3.45
2022-10-08T16:56:48.860Z,3.53
2022-10-08T16:59:19.485Z,0.45
2022-10-08T17:01:48.645Z,2.83
2022-10-08T17:04:17.304Z,0.52
2022-10-08T17:06:44.093Z,0.30
2022-10-08T17:09:11.731Z,1.45
2022-10-08T17:11:38.753Z,1.80
2022-10-08T17:14:07.686Z,0.40
2022-10-08T17:16:35.770Z,0.30
2022-10-08T17:19:03.557Z,0.10
2022-10-08T17:21:31.583Z,0.20
2022-10-08T17:23:59.056Z,0.52
2022-10-08T17:26:27.813Z,0.50
2022-10-08T17:28:57.517Z,0.70
2022-10-08T17:31:31.967Z,0.30
2022-10-08T17:33:59.715Z,0.30
2022-10-08T17:36:31.105Z,1.17
2022-10-08T17:38:59.880Z,0.43
2022-10-08T17:41:31.791Z,0.20
2022-10-08T17:44:00.717Z,0.20
2022-10-08T17:46:32.774Z,0.20
2022-10-08T17:49:00.217Z,0.68
2022-10-08T17:51:29.180Z,0.30
2022-10-08T17:53:57.539Z,2.42
2022-10-08T17:56:25.197Z,0.30
2022-10-08T17:58:52.539Z,0.70
2022-10-08T18:01:22.078Z,0.60
2022-10-08T18:03:53.020Z,1.50
2022-10-08T18:06:20.139Z,0.32
2022-10-08T18:08:47.287Z,0.30
2022-10-08T18:11:16.667Z,0.20
2022-10-08T18:13:43.232Z,0.30
2022-10-08T18:16:13.430Z,0.20
2022-10-08T18:18:40.743Z,3.47
2022-10-08T18:21:07.931Z,2.35
2022-10-08T18:23:36.475Z,0.60
2022-10-08T18:26:35.015Z,2.20
2022-10-08T18:29:09.205Z,0.63
2022-10-08T18:31:37.266Z,0.55
2022-10-08T18:34:06.480Z,1.17
2022-10-08T18:36:35.334Z,0.43
2022-10-08T18:39:07.663Z,0.40
2022-10-08T18:41:38.176Z,0.60
2022-10-08T18:44:06.536Z,0.82
2022-10-08T18:46:35.123Z,0.60
2022-10-08T18:49:02.404Z,1.13
2022-10-08T18:51:32.306Z,0.30
2022-10-08T18:54:01.707Z,0.57
2022-10-08T18:56:32.962Z,1.05
2022-10-08T18:59:03.926Z,0.85
2022-10-08T19:01:36.534Z,1.92
2022-10-08T19:04:09.169Z,0.43
2022-10-08T19:06:39.191Z,1.75
2022-10-08T19:09:07.125Z,0.20
2022-10-08T19:11:40.685Z,7.35
2022-10-08T19:14:13.051Z,0.30
2022-10-08T19:16:40.615Z,1.25
2022-10-08T19:19:14.672Z,0.30
2022-10-08T19:21:41.890Z,0.55
2022-10-08T19:24:13.070Z,0.57
2022-10-08T19:26:39.964Z,0.25
2022-10-08T19:29:06.588Z,0.85
2022-10-08T19:31:35.965Z,3.72
2022-10-08T19:34:05.371Z,0.45
2022-10-08T19:36:37.736Z,0.38
2022-10-08T19:39:07.867Z,0.32
2022-10-08T19:41:34.455Z,0.30
2022-10-08T19:44:01.020Z,0.73
2022-10-08T19:46:28.170Z,0.20
2022-10-08T19:48:57.588Z,0.50
2022-10-08T19:51:25.257Z,3.30
2022-10-08T19:53:52.411Z,0.57
2022-10-08T19:56:20.980Z,1.27
2022-10-08T19:58:53.393Z,0.40
2022-10-08T20:01:25.650Z,0.28
2022-10-08T20:03:59.005Z,0.45
2022-10-08T20:06:29.000Z,1.35
2022-10-08T20:08:58.856Z,0.65
2022-10-08T20:11:28.128Z,3.55
2022-10-08T20:13:55.311Z,0.28
2022-10-08T20:16:27.167Z,1.17
2022-10-08T20:18:59.791Z,0.22
2022-10-08T20:21:31.403Z,0.63
2022-10-08T20:23:58.456Z,2.83
2022-10-08T20:26:47.705Z,0.38
2022-10-08T20:29:17.396Z,0.30
2022-10-08T20:31:54.238Z,0.75
2022-10-08T20:34:23.825Z,0.20
2022-10-08T20:36:51.109Z,2.00
2022-10-08T20:39:20.149Z,0.47
2022-10-08T20:41:47.168Z,0.30
2022-10-08T20:44:14.406Z,0.25
2022-10-08T20:46:41.111Z,1.05
2022-10-08T20:49:07.894Z,0.30
2022-10-08T20:51:34.565Z,0.35
2022-10-08T20:54:03.791Z,2.92
2022-10-08T20:56:35.858Z,0.30
2022-10-08T20:59:06.115Z,0.13
2022-10-08T21:01:35.605Z,2.65
2022-10-08T21:04:03.311Z,0.30
2022-10-08T21:06:35.500Z,4.05
2022-10-08T21:09:04.368Z,0.30
2022-10-08T21:11:31.567Z,0.93
2022-10-08T21:14:01.493Z,0.35
2022-10-08T21:16:31.730Z,0.40
2022-10-08T21:19:03.128Z,1.35
2022-10-08T21:21:33.025Z,1.15
2022-10-08T21:24:00.336Z,0.68
2022-10-08T21:26:35.119Z,2.05
2022-10-08T21:29:04.865Z,3.13
2022-10-08T21:31:33.134Z,3.30
2022-10-08T21:34:00.824Z,0.28
2022-10-08T21:36:38.858Z,2.28
2022-10-08T21:39:07.994Z,0.20
2022-10-08T21:41:36.497Z,1.02
2022-10-08T21:44:05.742Z,0.47
2022-10-08T21:46:34.467Z,0.30
2022-10-08T21:49:03.862Z,0.47
2022-10-08T21:51:32.016Z,3.13
2022-10-08T21:54:01.006Z,1.17
2022-10-08T21:56:30.500Z,3.80
2022-10-08T21:58:59.607Z,1.67
2022-10-08T22:01:36.515Z,0.30
2022-10-08T22:04:05.014Z,2.20
2022-10-08T22:06:34.242Z,2.42
2022-10-08T22:09:00.897Z,6.22
2022-10-08T22:11:29.811Z,2.08
2022-10-08T22:13:58.283Z,3.88
2022-10-08T22:16:25.188Z,2.90
2022-10-08T22:18:52.218Z,2.83
2022-10-08T22:21:21.086Z,0.43
2022-10-08T22:23:48.332Z,0.65
2022-10-08T22:26:23.958Z,1.67
2022-10-08T22:28:50.801Z,0.60
2022-10-08T22:31:19.687Z,0.73
2022-10-08T22:33:47.752Z,1.38
2022-10-08T22:36:22.880Z,1.80
2022-10-08T22:38:50.462Z,3.85
2022-10-08T22:41:23.015Z,2.75
2022-10-08T22:43:49.861Z,1.33
2022-10-08T22:46:28.778Z,3.33
2022-10-08T22:49:06.935Z,1.25
2022-10-08T22:51:34.032Z,5.03
2022-10-08T22:54:02.843Z,3.58
2022-10-08T22:56:30.640Z,0.82
2022-10-08T22:58:59.106Z,0.90
2022-10-08T23:01:26.864Z,5.30
2022-10-08T23:03:54.276Z,3.30
2022-10-08T23:06:27.051Z,0.32
2022-10-08T23:08:56.696Z,0.68
2022-10-08T23:11:23.811Z,1.52
2022-10-08T23:13:55.667Z,1.55
2022-10-08T23:16:23.094Z,1.75
2022-10-08T23:18:58.511Z,0.50
2022-10-08T23:21:28.315Z,0.30
2022-10-08T23:23:56.277Z,2.20
2022-10-08T23:26:24.563Z,1.27
2022-10-08T23:28:53.439Z,1.33
2022-10-08T23:31:23.871Z,3.00
2022-10-08T23:33:52.229Z,3.17
2022-10-08T23:36:21.781Z,3.88
2022-10-08T23:38:48.792Z,0.40
2022-10-08T23:41:15.479Z,1.77
2022-10-08T23:43:44.367Z,0.45
2022-10-08T23:46:14.402Z,6.32
2022-10-08T23:48:43.976Z,2.25
2022-10-08T23:51:11.793Z,0.50
2022-10-08T23:53:40.590Z,3.42
2022-10-08T23:56:07.824Z,0.68
2022-10-08T23:58:35.077Z,0.47
